Time;durP1;ratioP1;P1;durP2;ratioP2;P2;SDS_P1;SDS_P2;PMS_P1;PMS_P2;Temp;Humidity;BMP_temperature;BMP_pressure;BME280_temperature;BME280_humidity;BME280_pressure;Samples;Min_cycle;Max_cycle;Signal;HPM_P1;HPM_P2
2022/05/09 00:01:52;;;;;;;5.17;4.10;;;12.10;99.90;;;;;;5027320;28;20730;-85
2022/05/09 00:04:20;;;;;;;5.57;3.53;;;12.00;99.90;;;;;;5028430;28;20620;-85
2022/05/09 00:06:48;;;;;;;5.70;3.70;;;11.90;99.90;;;;;;5033878;28;20638;-85
2022/05/09 00:09:17;;;;;;;5.40;4.20;;;11.90;99.90;;;;;;5031884;28;20794;-85
2022/05/09 00:11:45;;;;;;;5.10;4.43;;;11.80;99.90;;;;;;5040091;28;20739;-85
2022/05/09 00:14:14;;;;;;;4.80;4.17;;;11.80;99.90;;;;;;5033148;28;20720;-85
2022/05/09 00:16:41;;;;;;;3.63;3.33;;;11.80;99.90;;;;;;5032684;28;20654;-85
2022/05/09 00:19:13;;;;;;;3.60;3.30;;;11.90;99.90;;;;;;5032066;28;20651;-85
2022/05/09 00:21:42;;;;;;;4.30;2.83;;;11.90;99.90;;;;;;5027678;28;20680;-85
2022/05/09 00:24:14;;;;;;;5.40;3.53;;;11.70;99.90;;;;;;5029908;28;20623;-85
2022/05/09 00:26:43;;;;;;;3.30;3.00;;;11.80;99.90;;;;;;5035817;28;20625;-85
2022/05/09 00:29:13;;;;;;;5.17;4.00;;;11.80;99.90;;;;;;5031039;28;20616;-85
2022/05/09 00:31:43;;;;;;;6.60;3.10;;;11.80;99.90;;;;;;5028613;28;20619;-85
2022/05/09 00:34:11;;;;;;;3.17;2.23;;;11.70;99.90;;;;;;5031799;28;20622;-85
2022/05/09 00:36:41;;;;;;;5.50;3.30;;;11.60;99.90;;;;;;5032413;28;21146;-85
2022/05/09 00:39:08;;;;;;;4.27;3.57;;;11.70;99.90;;;;;;5034860;28;21203;-86
2022/05/09 00:41:38;;;;;;;3.47;3.17;;;11.60;99.90;;;;;;5034107;28;20617;-85
2022/05/09 00:44:09;;;;;;;4.50;3.50;;;11.60;99.90;;;;;;5033435;28;20624;-86
2022/05/09 00:46:36;;;;;;;5.17;3.80;;;11.50;99.90;;;;;;5029330;28;20623;-85
2022/05/09 00:49:10;;;;;;;4.53;3.73;;;11.40;99.90;;;;;;5030726;28;21314;-85
2022/05/09 00:51:38;;;;;;;4.33;3.93;;;11.40;99.90;;;;;;5028946;28;20666;-85
2022/05/09 00:54:07;;;;;;;3.53;3.20;;;11.40;99.90;;;;;;5031396;28;20622;-85
2022/05/09 00:56:41;;;;;;;4.30;3.90;;;11.40;99.90;;;;;;5026002;28;20721;-86
2022/05/09 00:59:12;;;;;;;3.90;2.90;;;11.40;99.90;;;;;;5027610;28;20630;-84
2022/05/09 01:01:41;;;;;;;3.53;3.17;;;11.40;99.90;;;;;;5031313;28;20622;-85
2022/05/09 01:04:11;;;;;;;4.13;3.73;;;11.40;99.90;;;;;;5030606;28;20626;-84
2022/05/09 01:06:38;;;;;;;4.93;4.40;;;11.40;99.90;;;;;;5033383;28;20625;-85
2022/05/09 01:09:10;;;;;;;4.63;2.70;;;11.40;99.90;;;;;;5030483;28;21144;-85
2022/05/09 01:11:39;;;;;;;5.70;4.03;;;11.40;99.90;;;;;;5034501;28;20626;-86
2022/05/09 01:14:14;;;;;;;3.70;3.40;;;11.30;99.90;;;;;;5029391;28;20720;-86
2022/05/09 01:16:43;;;;;;;3.40;3.17;;;11.40;99.90;;;;;;5027459;28;20734;-86
2022/05/09 01:19:23;;;;;;;5.20;4.10;;;11.30;99.90;;;;;;5031087;28;20625;-85
2022/05/09 01:21:52;;;;;;;4.10;3.30;;;11.20;99.90;;;;;;5026723;28;20637;-85
2022/05/09 01:24:23;;;;;;;286.90;95.63;;;11.10;99.90;;;;;;5031622;28;20633;-86
2022/05/09 01:26:51;;;;;;;4.77;4.33;;;11.10;99.90;;;;;;5029308;28;21043;-85
2022/05/09 01:29:25;;;;;;;7.30;4.27;;;11.10;99.90;;;;;;5034144;28;20714;-85
2022/05/09 01:31:55;;;;;;;3.00;2.80;;;11.10;99.90;;;;;;5028368;28;20685;-85
2022/05/09 01:34:22;;;;;;;2.90;2.50;;;11.10;99.90;;;;;;5030177;28;21104;-85
2022/05/09 01:36:57;;;;;;;4.50;4.10;;;11.10;99.90;;;;;;5034376;28;20630;-85
2022/05/09 01:39:24;;;;;;;3.67;3.37;;;11.10;99.90;;;;;;5028105;28;20679;-85
2022/05/09 01:41:52;;;;;;;4.97;4.07;;;11.00;99.90;;;;;;5029061;28;20651;-85
2022/05/09 01:44:20;;;;;;;6.23;5.03;;;10.90;99.90;;;;;;5033706;28;20633;-85
2022/05/09 01:49:34;;;;;;;4.00;3.53;;;10.90;99.90;;;;;;5024278;28;20684;-85
2022/05/09 01:52:06;;;;;;;4.87;3.73;;;10.90;99.90;;;;;;5031361;28;20629;-85
2022/05/09 01:54:34;;;;;;;4.03;3.63;;;10.90;99.90;;;;;;5033027;28;20624;-86
2022/05/09 01:57:00;;;;;;;3.07;2.83;;;10.90;99.90;;;;;;5030896;28;20618;-84
2022/05/09 01:59:29;;;;;;;3.93;3.50;;;10.80;99.90;;;;;;5029586;28;20629;-86
2022/05/09 02:01:59;;;;;;;5.77;4.57;;;10.80;99.90;;;;;;5030300;28;20617;-84
2022/05/09 02:04:26;;;;;;;4.40;3.50;;;10.90;99.90;;;;;;5025128;28;21006;-85
2022/05/09 02:06:54;;;;;;;5.60;4.97;;;10.90;99.90;;;;;;5034588;28;21295;-86
2022/05/09 02:09:23;;;;;;;7.10;3.80;;;10.80;99.90;;;;;;5037047;28;20637;-84
2022/05/09 02:11:50;;;;;;;4.70;4.20;;;10.80;99.90;;;;;;5031014;28;21202;-85
2022/05/09 02:14:17;;;;;;;5.07;3.70;;;10.70;99.90;;;;;;5032900;28;21575;-84
2022/05/09 02:16:44;;;;;;;6.20;3.50;;;10.70;99.90;;;;;;5034566;28;20658;-86
2022/05/09 02:19:11;;;;;;;4.70;4.30;;;10.70;99.90;;;;;;5036965;28;21031;-84
2022/05/09 02:21:38;;;;;;;3.23;2.93;;;10.70;99.90;;;;;;5034179;28;21399;-84
2022/05/09 02:24:05;;;;;;;3.93;3.30;;;10.80;99.90;;;;;;5028869;28;20717;-84
2022/05/09 02:26:33;;;;;;;3.87;3.30;;;10.70;99.90;;;;;;5031243;28;20630;-85
2022/05/09 02:29:00;;;;;;;6.40;5.17;;;10.70;99.90;;;;;;5037914;28;21240;-85
2022/05/09 02:31:27;;;;;;;3.87;3.53;;;10.60;99.90;;;;;;5033219;28;20652;-84
2022/05/09 02:33:54;;;;;;;5.47;3.50;;;10.70;99.90;;;;;;5030833;28;20634;-84
2022/05/09 02:36:21;;;;;;;9.97;4.40;;;10.70;99.90;;;;;;5032788;28;20614;-86
2022/05/09 02:38:48;;;;;;;3.27;3.07;;;10.60;99.90;;;;;;5033233;28;20710;-84
2022/05/09 02:41:15;;;;;;;4.67;4.27;;;10.60;99.90;;;;;;5034726;28;20723;-86
2022/05/09 02:43:43;;;;;;;4.87;4.13;;;10.50;99.90;;;;;;5029321;28;20659;-85
2022/05/09 02:46:10;;;;;;;5.37;3.57;;;10.60;99.90;;;;;;5031424;28;20633;-85
2022/05/09 02:48:38;;;;;;;4.90;4.40;;;10.50;99.90;;;;;;5034379;28;20625;-84
2022/05/09 02:51:06;;;;;;;4.20;3.50;;;10.60;99.90;;;;;;5033786;28;20615;-84
2022/05/09 02:53:33;;;;;;;6.13;4.83;;;10.50;99.90;;;;;;5035270;28;20731;-85
2022/05/09 02:56:00;;;;;;;4.47;3.00;;;10.50;99.90;;;;;;5027836;28;20620;-84
2022/05/09 02:58:27;;;;;;;4.57;4.00;;;10.50;99.90;;;;;;5031782;28;20628;-84
2022/05/09 03:00:55;;;;;;;7.13;3.83;;;10.50;99.90;;;;;;5028319;28;20651;-83
2022/05/09 03:06:07;;;;;;;7.53;3.20;;;10.50;99.90;;;;;;5034893;28;21531;-84
2022/05/09 03:08:34;;;;;;;4.60;3.57;;;10.40;99.90;;;;;;5030099;28;20628;-84
2022/05/09 03:11:01;;;;;;;5.33;3.83;;;10.40;99.90;;;;;;5028704;28;21492;-86
2022/05/09 03:13:28;;;;;;;3.57;3.17;;;10.50;99.90;;;;;;5035920;28;20734;-83
2022/05/09 03:15:58;;;;;;;4.27;3.50;;;10.40;99.90;;;;;;5032882;28;20656;-85
2022/05/09 03:18:26;;;;;;;3.57;2.73;;;10.50;99.90;;;;;;5035037;28;20706;-83
2022/05/09 03:20:52;;;;;;;5.20;3.43;;;10.50;99.90;;;;;;5036165;28;21202;-84
2022/05/09 03:23:19;;;;;;;4.00;3.33;;;10.50;99.90;;;;;;5034981;28;21257;-83
2022/05/09 03:25:47;;;;;;;4.30;3.90;;;10.40;99.90;;;;;;5036074;28;20632;-84
2022/05/09 03:28:16;;;;;;;4.27;2.57;;;10.40;99.90;;;;;;5035993;28;20993;-84
2022/05/09 03:30:45;;;;;;;5.17;3.67;;;10.30;99.90;;;;;;5029892;28;20963;-84
2022/05/09 03:33:14;;;;;;;3.83;3.50;;;10.20;99.90;;;;;;5032794;28;20630;-84
2022/05/09 03:35:41;;;;;;;4.23;3.63;;;10.30;99.90;;;;;;5032203;28;20625;-85
2022/05/09 03:38:08;;;;;;;4.00;3.60;;;10.30;99.90;;;;;;5034959;28;20675;-85
2022/05/09 03:40:35;;;;;;;5.77;4.73;;;10.30;99.90;;;;;;5039394;28;20745;-84
2022/05/09 03:43:02;;;;;;;8.30;5.13;;;10.40;99.90;;;;;;5033943;28;20621;-83
2022/05/09 03:45:29;;;;;;;4.73;4.23;;;10.40;99.90;;;;;;5029754;28;20630;-84
2022/05/09 03:47:57;;;;;;;7.87;5.77;;;10.40;99.90;;;;;;5035482;28;20735;-85
2022/05/09 03:50:25;;;;;;;7.40;3.97;;;10.40;99.90;;;;;;5035792;28;20981;-84
2022/05/09 03:52:52;;;;;;;3.97;3.60;;;10.40;99.90;;;;;;5029669;28;20728;-84
2022/05/09 03:55:19;;;;;;;4.53;3.80;;;10.40;99.90;;;;;;5033824;28;20652;-84
2022/05/09 03:57:48;;;;;;;4.10;3.20;;;10.40;99.90;;;;;;5031584;28;20628;-84
2022/05/09 04:00:16;;;;;;;3.90;3.03;;;10.50;99.90;;;;;;5025826;28;20978;-83
2022/05/09 04:02:43;;;;;;;5.90;4.97;;;10.50;99.90;;;;;;5026293;28;20626;-84
2022/05/09 04:05:15;;;;;;;6.20;4.97;;;10.60;99.90;;;;;;5032468;28;20629;-84
2022/05/09 04:07:45;;;;;;;6.13;4.43;;;10.60;99.90;;;;;;5034564;28;20641;-84
2022/05/09 04:10:13;;;;;;;6.50;5.60;;;10.60;99.90;;;;;;5029214;28;20632;-84
2022/05/09 04:12:41;;;;;;;6.50;5.33;;;10.60;99.90;;;;;;5038799;28;20626;-83
2022/05/09 04:17:54;;;;;;;6.40;4.43;;;10.60;99.90;;;;;;5032981;28;21207;-83
2022/05/09 04:20:22;;;;;;;3.63;3.03;;;10.70;99.90;;;;;;5028891;28;20620;-84
2022/05/09 04:22:51;;;;;;;3.77;3.00;;;10.70;99.90;;;;;;5034798;28;21174;-83
2022/05/09 04:25:19;;;;;;;6.67;4.37;;;10.70;99.90;;;;;;5031337;28;20625;-83
2022/05/09 04:27:46;;;;;;;6.10;4.47;;;10.70;99.90;;;;;;5031829;28;20628;-83
2022/05/09 04:30:13;;;;;;;9.23;5.90;;;10.70;99.90;;;;;;5030389;28;20637;-84
2022/05/09 04:32:41;;;;;;;7.50;4.83;;;10.70;99.90;;;;;;5031311;28;20722;-84
2022/05/09 04:35:11;;;;;;;5.50;4.77;;;10.60;99.90;;;;;;5034218;28;20630;-83
2022/05/09 04:37:39;;;;;;;4.50;4.10;;;10.70;99.90;;;;;;5032415;28;20623;-82
2022/05/09 04:40:10;;;;;;;7.53;6.57;;;10.70;99.90;;;;;;5033400;28;20755;-84
2022/05/09 04:42:37;;;;;;;5.65;5.13;;;10.80;99.90;;;;;;5027061;28;20798;-84
2022/05/09 04:45:05;;;;;;;6.10;4.80;;;10.80;99.90;;;;;;5027440;28;20602;-84
2022/05/09 04:47:31;;;;;;;6.00;4.63;;;10.90;99.90;;;;;;5033819;28;20649;-84
2022/05/09 04:49:58;;;;;;;6.70;4.53;;;10.90;99.90;;;;;;5033923;28;20764;-83
2022/05/09 04:52:31;;;;;;;6.50;4.60;;;10.90;99.90;;;;;;5030385;28;20625;-83
2022/05/09 04:54:58;;;;;;;6.33;5.10;;;10.90;99.90;;;;;;5025519;28;20652;-83
2022/05/09 04:57:26;;;;;;;8.30;4.63;;;11.00;99.90;;;;;;5032586;28;20813;-84
2022/05/09 04:59:53;;;;;;;4.93;3.63;;;11.10;99.90;;;;;;5031172;28;20988;-83
2022/05/09 05:02:20;;;;;;;6.07;4.73;;;11.20;99.90;;;;;;5030414;28;20665;-84
2022/05/09 05:04:47;;;;;;;5.67;4.60;;;11.30;99.90;;;;;;5025774;28;20653;-84
2022/05/09 05:07:14;;;;;;;4.50;4.10;;;11.40;99.90;;;;;;5031499;28;20649;-83
2022/05/09 05:09:41;;;;;;;7.87;4.83;;;11.50;99.90;;;;;;5025938;28;20756;-84
2022/05/09 05:12:09;;;;;;;5.57;4.20;;;11.50;99.90;;;;;;5029945;28;20658;-84
2022/05/09 05:14:37;;;;;;;5.00;3.90;;;11.60;99.90;;;;;;5033764;28;20639;-83
2022/05/09 05:17:05;;;;;;;5.03;4.63;;;11.60;99.90;;;;;;5027852;28;20758;-83
2022/05/09 05:19:35;;;;;;;4.90;4.40;;;11.60;99.90;;;;;;5026234;28;20666;-83
2022/05/09 05:22:04;;;;;;;6.70;5.40;;;11.60;99.90;;;;;;5028928;28;20673;-84
2022/05/09 05:24:34;;;;;;;5.93;3.90;;;11.70;99.90;;;;;;5033893;28;21210;-83
2022/05/09 05:27:01;;;;;;;7.53;5.80;;;11.70;99.90;;;;;;5030190;28;20738;-84
2022/05/09 05:29:28;;;;;;;7.10;6.40;;;11.80;99.90;;;;;;5028006;28;20673;-83
2022/05/09 05:31:56;;;;;;;9.70;6.37;;;11.90;99.90;;;;;;5029858;28;20725;-83
2022/05/09 05:34:24;;;;;;;5.27;4.30;;;11.90;99.90;;;;;;5028292;28;20742;-84
2022/05/09 05:36:51;;;;;;;7.30;5.07;;;12.00;99.90;;;;;;5027597;28;20623;-83
2022/05/09 05:39:18;;;;;;;6.37;4.63;;;12.10;99.90;;;;;;5030114;28;20650;-83
2022/05/09 05:41:46;;;;;;;5.73;4.90;;;12.20;99.90;;;;;;5029220;28;20751;-84
2022/05/09 05:44:13;;;;;;;6.30;5.80;;;12.30;99.90;;;;;;5038969;28;20623;-84
2022/05/09 05:46:40;;;;;;;6.87;4.70;;;12.40;99.90;;;;;;5036990;28;20676;-84
2022/05/09 05:49:09;;;;;;;5.63;4.30;;;12.60;99.90;;;;;;5031664;28;20755;-83
2022/05/09 05:51:37;;;;;;;4.83;4.30;;;12.60;99.90;;;;;;5028614;28;20651;-83
2022/05/09 05:54:04;;;;;;;5.80;5.30;;;12.80;99.90;;;;;;5034832;28;20743;-84
2022/05/09 05:56:31;;;;;;;6.40;5.10;;;13.00;99.90;;;;;;5037416;28;20663;-84
2022/05/09 05:58:59;;;;;;;4.70;4.20;;;13.10;99.90;;;;;;5030807;28;20718;-84
2022/05/09 06:01:26;;;;;;;5.37;4.87;;;13.20;99.90;;;;;;5030851;28;20666;-84
2022/05/09 06:03:52;;;;;;;3.80;3.50;;;13.40;99.90;;;;;;5035240;28;20629;-84
2022/05/09 06:06:21;;;;;;;4.07;3.67;;;13.40;99.90;;;;;;5037134;28;20718;-84
2022/05/09 06:08:48;;;;;;;5.37;3.60;;;13.60;99.90;;;;;;5037724;28;21191;-85
2022/05/09 06:11:15;;;;;;;7.50;5.53;;;13.60;99.90;;;;;;5027602;28;20647;-84
2022/05/09 06:13:42;;;;;;;4.70;4.07;;;13.80;99.90;;;;;;5035651;28;21179;-84
2022/05/09 06:16:09;;;;;;;5.10;4.07;;;13.80;99.90;;;;;;5032445;28;20644;-85
2022/05/09 06:18:36;;;;;;;3.70;3.30;;;13.90;99.90;;;;;;5030967;28;20678;-85
2022/05/09 06:21:03;;;;;;;4.33;3.77;;;14.00;99.90;;;;;;5036923;28;21072;-84
2022/05/09 06:23:32;;;;;;;8.30;4.00;;;14.20;99.90;;;;;;5032410;28;20725;-84
2022/05/09 06:26:00;;;;;;;4.67;3.57;;;14.20;99.90;;;;;;5032462;28;20630;-85
2022/05/09 06:28:27;;;;;;;3.77;3.43;;;14.30;99.90;;;;;;5031886;28;20631;-84
2022/05/09 06:30:53;;;;;;;3.80;3.53;;;14.40;99.90;;;;;;5031244;28;20755;-84
2022/05/09 06:33:23;;;;;;;5.00;4.17;;;14.50;99.90;;;;;;5034705;28;20729;-84
2022/05/09 06:35:50;;;;;;;4.90;4.30;;;14.60;99.30;;;;;;5036864;28;20619;-86
2022/05/09 06:38:18;;;;;;;3.93;3.53;;;14.70;99.50;;;;;;5030304;28;20714;-86
2022/05/09 06:40:46;;;;;;;4.73;4.23;;;14.60;99.30;;;;;;5030674;28;21053;-85
2022/05/09 06:43:13;;;;;;;4.20;3.40;;;14.60;98.80;;;;;;5036040;28;20670;-85
2022/05/09 06:45:41;;;;;;;4.30;3.90;;;14.70;99.00;;;;;;5035445;28;20621;-85
2022/05/09 06:48:08;;;;;;;4.00;3.60;;;14.90;99.30;;;;;;5031702;28;20638;-84
2022/05/09 06:50:36;;;;;;;3.93;3.63;;;15.00;99.00;;;;;;5034457;28;20610;-86
2022/05/09 06:53:04;;;;;;;3.67;3.37;;;15.10;98.80;;;;;;5030451;28;20678;-86
2022/05/09 06:55:31;;;;;;;5.00;3.33;;;15.30;98.00;;;;;;5036280;28;20618;-84
2022/05/09 06:57:59;;;;;;;4.70;4.20;;;15.30;98.10;;;;;;5035328;28;20626;-85
2022/05/09 07:00:27;;;;;;;4.13;3.70;;;15.30;97.80;;;;;;5028653;28;20796;-85
2022/05/09 07:02:54;;;;;;;4.50;4.00;;;15.30;97.50;;;;;;5029327;28;21085;-85
2022/05/09 07:05:22;;;;;;;4.43;4.03;;;15.40;98.10;;;;;;5032916;28;20630;-85
2022/05/09 07:07:50;;;;;;;6.00;4.80;;;15.60;97.70;;;;;;5027911;28;20720;-85
2022/05/09 07:10:18;;;;;;;3.67;3.37;;;15.80;97.00;;;;;;5032585;28;20623;-84
2022/05/09 07:12:47;;;;;;;4.57;4.00;;;15.80;97.10;;;;;;5035791;28;21079;-85
2022/05/09 07:15:18;;;;;;;4.63;3.63;;;15.80;97.20;;;;;;5036867;28;21008;-83
2022/05/09 07:17:45;;;;;;;4.10;3.10;;;15.70;97.10;;;;;;5036919;28;20619;-83
2022/05/09 07:20:15;;;;;;;4.70;4.30;;;15.70;97.50;;;;;;5030199;28;20619;-84
2022/05/09 07:22:41;;;;;;;4.27;3.87;;;15.90;97.50;;;;;;5035791;28;20670;-84
2022/05/09 07:25:11;;;;;;;4.07;3.13;;;16.00;97.40;;;;;;5030905;28;20731;-85
2022/05/09 07:27:38;;;;;;;4.93;3.90;;;16.10;96.70;;;;;;5034498;28;20711;-84
2022/05/09 07:30:06;;;;;;;5.20;4.20;;;16.10;96.60;;;;;;5034859;28;21244;-84
2022/05/09 07:32:35;;;;;;;4.47;4.17;;;16.00;96.50;;;;;;5029198;28;20630;-85
2022/05/09 07:35:02;;;;;;;4.30;3.83;;;16.40;96.00;;;;;;5027504;28;20633;-85
2022/05/09 07:37:29;;;;;;;4.17;3.77;;;16.50;95.50;;;;;;5031551;28;20709;-84
2022/05/09 07:39:56;;;;;;;4.70;4.30;;;16.60;95.60;;;;;;5032805;28;20630;-84
2022/05/09 07:42:23;;;;;;;5.33;3.70;;;16.60;95.70;;;;;;5039748;28;20769;-85
2022/05/09 07:44:52;;;;;;;5.53;3.90;;;16.70;96.10;;;;;;5029026;28;20634;-85
2022/05/09 07:47:19;;;;;;;5.40;3.90;;;16.80;95.90;;;;;;5030462;28;20631;-84
2022/05/09 07:49:47;;;;;;;6.63;3.47;;;16.80;96.20;;;;;;5035732;28;20629;-85
2022/05/09 07:52:14;;;;;;;3.40;3.10;;;17.10;95.60;;;;;;5030292;28;21278;-84
2022/05/09 07:54:41;;;;;;;3.57;3.27;;;17.10;95.10;;;;;;5032374;28;20630;-84
2022/05/09 07:57:08;;;;;;;4.97;4.20;;;17.30;94.60;;;;;;5025468;28;20627;-85
2022/05/09 07:59:35;;;;;;;4.07;3.03;;;17.30;94.20;;;;;;5036224;28;20623;-85
2022/05/09 08:02:02;;;;;;;3.50;3.20;;;17.50;94.50;;;;;;5028778;28;20643;-85
2022/05/09 08:04:29;;;;;;;3.50;3.20;;;17.60;94.80;;;;;;5036375;28;20721;-85
2022/05/09 08:06:57;;;;;;;4.43;3.20;;;17.40;94.50;;;;;;5030449;28;20630;-84
2022/05/09 08:09:24;;;;;;;4.07;3.60;;;17.30;94.30;;;;;;5028166;28;20627;-85
2022/05/09 08:11:51;;;;;;;3.33;3.03;;;17.50;93.70;;;;;;5034715;28;20709;-85
2022/05/09 08:14:18;;;;;;;3.43;3.13;;;17.70;93.50;;;;;;5035184;28;20614;-85
2022/05/09 08:16:45;;;;;;;4.03;3.27;;;17.90;93.00;;;;;;5034076;28;20623;-84
2022/05/09 08:19:12;;;;;;;3.77;3.40;;;17.90;93.10;;;;;;5035493;28;20658;-86
2022/05/09 08:21:39;;;;;;;2.73;2.53;;;18.00;92.10;;;;;;5031294;28;20620;-85
2022/05/09 08:24:09;;;;;;;4.17;2.90;;;18.10;92.70;;;;;;5037764;28;20677;-85
2022/05/09 08:26:36;;;;;;;3.97;3.60;;;18.30;92.00;;;;;;5038494;28;20636;-84
2022/05/09 08:29:04;;;;;;;4.17;3.43;;;18.30;92.20;;;;;;5033719;28;20709;-84
2022/05/09 08:31:31;;;;;;;3.70;2.90;;;18.50;91.20;;;;;;5033437;28;20627;-86
2022/05/09 08:33:59;;;;;;;3.43;3.17;;;18.60;91.50;;;;;;5031850;28;21299;-86
2022/05/09 08:39:14;;;;;;;6.37;3.63;;;18.80;90.80;;;;;;5032978;28;20626;-86
2022/05/09 08:41:57;;;;;;;3.17;2.97;;;18.90;89.80;;;;;;5030562;28;20621;-85
2022/05/09 08:44:57;;;;;;;2.93;2.60;;;18.90;89.90;;;;;;5033071;28;20626;-84
2022/05/09 08:47:51;;;;;;;3.13;2.50;;;19.00;89.40;;;;;;5028634;28;20627;-85
2022/05/09 08:50:25;;;;;;;3.90;3.50;;;18.90;89.70;;;;;;5028812;28;20643;-83
2022/05/09 08:52:59;;;;;;;4.50;3.43;;;19.00;88.30;;;;;;5030181;28;20622;-84
2022/05/09 08:55:32;;;;;;;3.43;2.67;;;19.20;89.00;;;;;;5036668;28;20622;-85
2022/05/09 08:58:03;;;;;;;3.20;2.87;;;19.20;87.90;;;;;;5030310;28;20658;-85
2022/05/09 09:00:32;;;;;;;3.97;3.57;;;19.30;89.60;;;;;;5027968;28;20700;-84
2022/05/09 09:03:13;;;;;;;2.63;2.43;;;19.40;90.00;;;;;;5031573;28;20663;-84
2022/05/09 09:05:45;;;;;;;3.57;2.50;;;19.50;87.50;;;;;;5030189;28;20634;-85
2022/05/09 09:08:19;;;;;;;3.77;3.03;;;19.50;87.80;;;;;;5030221;28;20669;-84
2022/05/09 09:10:55;;;;;;;3.40;3.10;;;19.50;87.10;;;;;;5034941;28;20721;-85
2022/05/09 09:13:34;;;;;;;2.93;2.63;;;19.80;86.30;;;;;;5033438;28;20662;-84
2022/05/09 09:16:22;;;;;;;3.43;2.80;;;19.80;86.80;;;;;;5028595;28;20725;-85
2022/05/09 09:19:27;;;;;;;5.23;3.67;;;19.90;85.20;;;;;;5037326;28;20697;-85
2022/05/09 09:22:04;;;;;;;2.60;2.40;;;19.90;85.00;;;;;;5032362;28;20721;-84
2022/05/09 09:24:55;;;;;;;2.93;2.63;;;20.00;85.30;;;;;;5038593;28;20689;-86
2022/05/09 09:27:35;;;;;;;3.33;3.03;;;20.10;84.60;;;;;;5032304;28;20659;-86
2022/05/09 09:30:10;;;;;;;2.60;2.40;;;20.00;87.10;;;;;;5041912;28;21253;-85
2022/05/09 09:32:40;;;;;;;2.97;2.67;;;20.20;85.50;;;;;;5031591;28;20687;-85
2022/05/09 09:35:12;;;;;;;4.30;3.33;;;20.20;84.10;;;;;;5036438;28;20629;-85
2022/05/09 09:37:48;;;;;;;3.10;2.80;;;20.40;82.50;;;;;;5036650;28;20624;-85
2022/05/09 09:40:16;;;;;;;3.53;2.93;;;20.30;80.60;;;;;;5033692;28;21186;-85
2022/05/09 09:42:44;;;;;;;3.37;3.07;;;20.30;81.70;;;;;;5036301;28;20669;-85
2022/05/09 09:45:33;;;;;;;3.20;2.90;;;20.20;83.30;;;;;;5033801;28;20725;-85
2022/05/09 09:48:12;;;;;;;3.57;3.27;;;20.20;83.80;;;;;;5034498;28;20707;-86
2022/05/09 09:50:58;;;;;;;4.27;3.93;;;20.10;83.40;;;;;;5034757;28;20619;-86
2022/05/09 09:53:34;;;;;;;3.60;3.30;;;20.20;85.20;;;;;;5037170;28;20622;-85
2022/05/09 09:56:06;;;;;;;3.07;2.87;;;20.30;84.30;;;;;;5034682;28;20633;-85
2022/05/09 09:58:35;;;;;;;4.10;3.47;;;20.40;83.00;;;;;;5038580;28;20631;-86
2022/05/09 10:01:06;;;;;;;3.60;3.07;;;20.40;83.50;;;;;;5032491;28;20637;-85
2022/05/09 10:03:34;;;;;;;2.70;2.50;;;20.50;81.80;;;;;;5032253;28;20769;-84
2022/05/09 10:06:04;;;;;;;4.10;3.80;;;20.50;81.30;;;;;;5035756;28;20638;-85
2022/05/09 10:08:33;;;;;;;3.97;3.50;;;20.60;81.30;;;;;;5030817;28;20635;-86
2022/05/09 10:11:08;;;;;;;2.60;2.40;;;20.70;83.90;;;;;;5037776;28;20657;-85
2022/05/09 10:13:39;;;;;;;3.67;2.97;;;20.80;83.60;;;;;;5038708;28;21188;-85
2022/05/09 10:16:11;;;;;;;2.93;2.73;;;21.00;84.70;;;;;;5031766;28;20986;-85
2022/05/09 10:18:38;;;;;;;3.17;2.90;;;21.40;83.70;;;;;;5033865;28;20650;-85
2022/05/09 10:21:17;;;;;;;3.80;3.50;;;21.40;80.80;;;;;;5029976;28;20627;-85
2022/05/09 10:26:36;;;;;;;3.77;3.47;;;21.20;80.40;;;;;;5038493;28;20630;-85
2022/05/09 10:29:08;;;;;;;3.70;3.30;;;21.30;79.00;;;;;;5035676;28;20720;-84
2022/05/09 10:31:42;;;;;;;3.27;2.97;;;21.20;79.00;;;;;;5029966;28;20626;-85
2022/05/09 10:34:14;;;;;;;3.37;3.10;;;21.30;80.00;;;;;;5028409;28;20710;-86
2022/05/09 10:36:45;;;;;;;2.93;2.73;;;21.80;78.50;;;;;;5032753;28;20654;-86
2022/05/09 10:39:17;;;;;;;3.27;3.07;;;21.90;77.80;;;;;;5029784;28;20654;-85
2022/05/09 10:41:49;;;;;;;2.83;2.47;;;22.00;77.20;;;;;;5037836;28;20790;-85
2022/05/09 10:44:27;;;;;;;3.50;3.20;;;22.10;77.60;;;;;;5035226;28;20713;-86
2022/05/09 10:47:00;;;;;;;2.93;2.57;;;22.40;76.10;;;;;;5030798;28;20627;-86
2022/05/09 10:49:35;;;;;;;2.93;2.63;;;22.50;75.30;;;;;;5032111;28;20699;-86
2022/05/09 10:52:18;;;;;;;3.60;3.30;;;22.60;74.90;;;;;;5039009;28;20737;-84
2022/05/09 10:54:49;;;;;;;3.70;3.00;;;22.80;73.60;;;;;;5032938;28;20638;-85
2022/05/09 10:57:26;;;;;;;3.43;3.13;;;22.90;75.20;;;;;;5033202;28;20949;-84
2022/05/09 11:00:00;;;;;;;4.00;3.57;;;23.20;72.90;;;;;;5030124;28;20634;-85
2022/05/09 11:02:31;;;;;;;3.60;2.77;;;23.20;73.30;;;;;;5036641;28;20753;-85
2022/05/09 11:04:58;;;;;;;3.00;2.80;;;23.20;71.10;;;;;;5036829;28;20681;-85
2022/05/09 11:07:33;;;;;;;3.23;2.93;;;23.20;70.40;;;;;;5031091;28;21232;-85
2022/05/09 11:10:11;;;;;;;3.20;2.93;;;23.60;70.40;;;;;;5030614;28;20729;-85
2022/05/09 11:12:53;;;;;;;3.30;2.87;;;24.00;70.50;;;;;;5038134;28;20627;-85
2022/05/09 11:15:31;;;;;;;3.20;2.90;;;24.00;69.40;;;;;;5028870;28;20722;-85
2022/05/09 11:18:28;;;;;;;3.20;2.90;;;24.10;69.00;;;;;;5033165;28;20649;-85
2022/05/09 11:21:03;;;;;;;3.27;3.07;;;23.90;66.40;;;;;;5015845;28;20718;-86
2022/05/09 11:23:36;;;;;;;2.50;2.40;;;23.60;67.50;;;;;;5031513;28;20746;-85
2022/05/09 11:26:14;;;;;;;2.60;2.40;;;23.50;66.90;;;;;;5034351;28;20726;-86
2022/05/09 11:28:55;;;;;;;3.20;2.90;;;23.50;67.40;;;;;;5029343;28;21223;-85
2022/05/09 11:31:31;;;;;;;2.10;2.00;;;23.30;67.10;;;;;;5033674;28;20631;-86
2022/05/09 11:34:18;;;;;;;3.83;3.27;;;23.30;66.90;;;;;;5030805;28;20696;-88
2022/05/09 11:36:59;;;;;;;3.50;3.20;;;22.90;67.80;;;;;;5035312;28;20651;-85
2022/05/09 11:39:35;;;;;;;2.73;2.53;;;22.70;69.30;;;;;;5033262;28;21203;-86
2022/05/09 11:45:01;;;;;;;2.50;2.30;;;22.50;70.10;;;;;;5028397;28;21084;-86
2022/05/09 11:47:35;;;;;;;3.07;2.60;;;22.60;71.20;;;;;;5028401;28;20684;-86
2022/05/09 11:50:17;;;;;;;2.83;2.63;;;22.80;72.40;;;;;;5034969;28;20650;-84
2022/05/09 11:52:45;;;;;;;3.10;2.90;;;23.80;69.20;;;;;;5037117;28;20707;-85
2022/05/09 11:55:17;;;;;;;3.60;3.30;;;24.80;68.40;;;;;;5034782;28;21327;-86
2022/05/09 11:57:48;;;;;;;2.67;2.47;;;26.10;65.80;;;;;;5034123;28;20712;-86
2022/05/09 12:00:48;;;;;;;3.40;3.10;;;27.50;60.50;;;;;;5027418;28;20659;-85
2022/05/09 12:04:03;;;;;;;3.37;3.07;;;27.60;57.40;;;;;;5031711;28;20763;-86
2022/05/09 12:06:42;;;;;;;3.23;3.00;;;27.30;58.20;;;;;;5029031;28;20711;-87
2022/05/09 12:09:13;;;;;;;3.70;3.40;;;27.10;58.00;;;;;;5036624;28;20630;-85
2022/05/09 12:11:49;;;;;;;3.50;3.20;;;26.20;58.40;;;;;;5041285;28;20761;-86
2022/05/09 12:14:46;;;;;;;3.20;2.90;;;25.50;59.80;;;;;;5030166;28;20637;-86
2022/05/09 12:17:22;;;;;;;3.40;3.20;;;24.60;59.10;;;;;;5033678;28;20635;-87
2022/05/09 12:19:51;;;;;;;3.33;3.07;;;24.60;63.80;;;;;;5029375;28;20614;-86
2022/05/09 12:22:49;;;;;;;3.30;3.00;;;24.50;60.80;;;;;;5034102;28;21066;-86
2022/05/09 12:26:00;;;;;;;3.67;3.37;;;24.30;60.40;;;;;;5032126;28;20627;-87
2022/05/09 12:28:30;;;;;;;3.10;2.90;;;24.30;61.90;;;;;;5009420;28;20689;-86
2022/05/09 12:30:58;;;;;;;2.63;2.40;;;25.00;60.00;;;;;;5022117;28;21165;-86
2022/05/09 12:33:35;;;;;;;2.93;2.73;;;26.50;59.00;;;;;;5035247;28;20730;-86
2022/05/09 12:36:07;;;;;;;2.77;2.57;;;27.70;55.20;;;;;;5031493;28;20747;-86
2022/05/09 12:38:36;;;;;;;2.30;2.10;;;28.00;55.50;;;;;;5036889;28;20700;-86
2022/05/09 12:41:11;;;;;;;3.90;3.00;;;27.80;54.40;;;;;;5035784;28;20728;-86
2022/05/09 12:43:42;;;;;;;3.43;3.20;;;27.50;54.70;;;;;;5037425;28;20660;-87
2022/05/09 12:46:17;;;;;;;3.13;2.93;;;28.40;53.50;;;;;;5032479;28;20726;-86
2022/05/09 12:48:44;;;;;;;2.93;2.77;;;29.40;52.30;;;;;;5031550;28;20695;-86
2022/05/09 12:51:15;;;;;;;3.03;2.83;;;30.30;50.40;;;;;;5029326;28;21081;-87
2022/05/09 12:53:42;;;;;;;3.50;3.20;;;30.90;50.80;;;;;;5033007;28;20658;-87
2022/05/09 12:56:13;;;;;;;3.23;3.03;;;30.80;50.00;;;;;;5030896;28;21308;-86
2022/05/09 12:58:42;;;;;;;3.50;3.20;;;30.20;48.80;;;;;;5032002;28;20623;-87
2022/05/09 13:01:17;;;;;;;4.83;2.83;;;30.00;49.60;;;;;;5032102;28;20679;-86
2022/05/09 13:03:50;;;;;;;2.63;2.43;;;29.20;48.60;;;;;;5033438;28;20815;-88
2022/05/09 13:06:20;;;;;;;3.40;3.20;;;27.80;50.30;;;;;;5029369;28;20717;-87
2022/05/09 13:08:47;;;;;;;3.40;3.10;;;27.00;50.70;;;;;;5027144;28;20741;-87
2022/05/09 13:11:18;;;;;;;3.37;3.10;;;26.30;51.90;;;;;;5028510;28;20633;-87
2022/05/09 13:14:02;;;;;;;3.17;2.87;;;25.70;54.30;;;;;;5036268;28;20712;-88
2022/05/09 13:16:33;;;;;;;3.63;3.33;;;25.50;55.60;;;;;;5028515;28;20721;-87
2022/05/09 13:19:00;;;;;;;3.37;3.17;;;26.30;54.60;;;;;;5033211;28;21518;-87
2022/05/09 13:21:37;;;;;;;2.87;2.60;;;26.00;54.20;;;;;;5028509;28;20727;-87